Welcome to Boston ARTCC, where excellence is served daily with a cup of MOCHA HAGoTDI


Whether you are a pilot, controller, or a little of both; ZBW is the premier airspace in VATSIM

News

Cross the Pond 2014 Eastbound - Pilot Briefing

ATTENTION ALL PILOTS:

The Cross the Pond 2014 Eastbound Pilot Briefing for pilots departing from Boston Logan Intl Airport (KBOS) is now available and is attached to this post in the vZBW forum. It can also be accessed on the Cross the Pond website under the pilot area.

Don't be afraid to contact us with any questions, comments, concerns, or suggestions. Most importantly, see you on the 25th!

2 weeks ago

ZBW Website NOTAM

Attention ZBW Controllers (and TS3 visitors):


Please update your settings to reflect the host as "bostonartcc.net" instead of "ts3.bostonartcc.net". Due to what appears to be local DNS caching issues, the old ts3 subdomain will no longer respond.


Please note that all email addresses are the same post-migration, however you may also elect to contact staff members through the roster.


Student Controllers

Please use the training center to request training sessions. This will provide a direct link for staff members to more easily monitor and manage training sessions.

3 weeks ago

ATC Online

Controller Position Frequency Sign-On
No controllers currently online.

Air Traffic

Inbound: 0 Outbound: 0 View All

Weather parsed

KBOS 201254Z 24009KT 10SM FEW160 SCT250 06/M03 A3007 RMK AO2 SLP181 T00561028

KMHT 201253Z 21006KT 10SM BKN120 BKN200 04/M04 A3002 RMK AO2 SLP183 T00441039

KBDL 201251Z 21007KT 10SM FEW140 FEW250 06/M01 A3007 RMK AO2 SLP185 T00561011

KPVD 201251Z 23005KT 10SM FEW065 FEW250 05/M02 A3010 RMK AO2 SLP194 T00501017